Time;durP1;ratioP1;P1;durP2;ratioP2;P2;SDS_P1;SDS_P2;PMS_P1;PMS_P2;Temp;Humidity;BMP_temperature;BMP_pressure;BME280_temperature;BME280_humidity;BME280_pressure;Samples;Min_cycle;Max_cycle;Signal;HPM_P1;HPM_P2
2022/05/05 00:02:07;;;;;;;15.32;7.20;;;7.10;99.90;;;;;;4981406;28;20125;-80
2022/05/05 00:04:33;;;;;;;16.98;7.53;;;7.00;99.90;;;;;;4971684;28;20121;-81
2022/05/05 00:07:03;;;;;;;24.80;8.30;;;7.00;99.90;;;;;;4987921;28;20150;-78
2022/05/05 00:09:29;;;;;;;16.75;8.20;;;7.50;99.90;;;;;;4987664;28;20046;-80
2022/05/05 00:14:40;;;;;;;17.05;7.68;;;7.10;99.90;;;;;;4989129;28;20143;-83
2022/05/05 00:17:07;;;;;;;17.48;7.97;;;7.10;99.90;;;;;;4988651;28;20531;-81
2022/05/05 00:19:35;;;;;;;18.05;7.95;;;7.10;99.90;;;;;;4991344;28;20041;-83
2022/05/05 00:22:02;;;;;;;20.65;7.88;;;7.10;99.90;;;;;;4974942;28;20528;-83
2022/05/05 00:24:28;;;;;;;15.10;7.50;;;7.20;99.90;;;;;;4970240;28;20038;-82
2022/05/05 00:26:53;;;;;;;20.08;7.63;;;7.10;99.90;;;;;;4986282;28;20465;-81
2022/05/05 00:29:20;;;;;;;17.00;7.13;;;7.10;99.90;;;;;;4963994;28;20050;-79
2022/05/05 00:31:46;;;;;;;19.48;7.00;;;7.30;99.90;;;;;;4993575;28;20069;-83
2022/05/05 00:34:15;;;;;;;16.02;6.47;;;7.10;99.90;;;;;;4977879;28;20041;-80
2022/05/05 00:36:41;;;;;;;14.32;6.28;;;7.30;99.90;;;;;;4987750;28;20434;-80
2022/05/05 00:39:07;;;;;;;19.42;6.50;;;7.20;99.90;;;;;;4990198;28;20065;-80
2022/05/05 00:42:02;;;;;;;16.05;6.53;;;7.20;99.90;;;;;;5001556;28;20042;-84
2022/05/05 00:44:27;;;;;;;15.32;5.75;;;7.20;99.90;;;;;;4983277;28;20045;-79
2022/05/05 00:46:53;;;;;;;17.35;6.43;;;7.20;99.90;;;;;;4989047;28;20038;-79
2022/05/05 00:49:20;;;;;;;11.15;5.47;;;7.30;99.90;;;;;;4996066;28;20044;-77
2022/05/05 00:51:46;;;;;;;10.15;5.93;;;7.20;99.90;;;;;;4980378;28;20046;-80
2022/05/05 00:54:11;;;;;;;16.40;5.95;;;7.30;99.90;;;;;;4992621;28;20060;-81
2022/05/05 00:56:38;;;;;;;14.13;5.82;;;7.30;99.90;;;;;;4991434;28;20042;-80
2022/05/05 00:59:05;;;;;;;18.10;5.90;;;7.30;99.90;;;;;;4976015;28;20064;-83
2022/05/05 01:01:31;;;;;;;18.70;6.30;;;7.30;99.90;;;;;;4980451;28;20038;-78
2022/05/05 01:03:57;;;;;;;13.20;6.18;;;8.00;99.90;;;;;;4991172;28;20389;-77
2022/05/05 01:06:23;;;;;;;18.25;6.40;;;7.30;99.90;;;;;;4992040;28;20042;-79
2022/05/05 01:08:49;;;;;;;17.63;5.85;;;7.30;99.90;;;;;;4992821;28;20053;-80
2022/05/05 01:11:14;;;;;;;15.35;5.90;;;7.40;99.90;;;;;;4984989;28;20042;-75
2022/05/05 01:14:00;;;;;;;12.90;6.18;;;7.50;99.90;;;;;;4986076;28;20046;-74
2022/05/05 01:16:26;;;;;;;16.15;6.68;;;7.30;99.90;;;;;;4971946;28;20065;-82
2022/05/05 01:18:55;;;;;;;16.35;6.60;;;7.30;99.90;;;;;;4991930;28;20038;-80
2022/05/05 01:21:21;;;;;;;18.83;6.28;;;7.50;99.90;;;;;;4976142;28;20046;-78
2022/05/05 01:23:46;;;;;;;17.10;6.55;;;7.30;99.90;;;;;;4993371;28;20036;-80
2022/05/05 01:28:57;;;;;;;13.15;6.32;;;7.40;99.90;;;;;;4987913;28;20467;-79
2022/05/05 01:31:22;;;;;;;14.02;6.00;;;7.40;99.90;;;;;;4995400;28;20145;-80
2022/05/05 01:33:49;;;;;;;16.55;6.13;;;7.40;99.90;;;;;;4988526;28;20125;-78
2022/05/05 01:36:15;;;;;;;13.70;6.05;;;7.40;99.90;;;;;;4987502;28;20044;-80
2022/05/05 01:38:43;;;;;;;12.23;5.55;;;7.40;99.90;;;;;;4986106;28;20093;-79
2022/05/05 01:41:13;;;;;;;12.55;5.80;;;7.40;99.90;;;;;;4975083;28;20056;-79
2022/05/05 01:43:41;;;;;;;15.88;5.80;;;7.40;99.90;;;;;;4973177;28;20050;-79
2022/05/05 01:46:07;;;;;;;18.52;6.15;;;7.50;99.90;;;;;;5009653;28;20038;-79
2022/05/05 01:48:33;;;;;;;12.60;5.35;;;7.50;99.90;;;;;;4984423;28;20064;-80
2022/05/05 01:51:00;;;;;;;15.70;5.53;;;7.50;99.90;;;;;;4978807;28;20383;-77
2022/05/05 01:53:26;;;;;;;15.07;5.38;;;7.50;99.90;;;;;;4971709;28;20064;-81
2022/05/05 01:55:52;;;;;;;13.95;5.45;;;7.60;99.90;;;;;;4991577;28;20038;-78
2022/05/05 01:58:17;;;;;;;17.23;6.32;;;7.70;99.90;;;;;;4988258;28;20033;-80
2022/05/05 02:00:43;;;;;;;11.20;5.60;;;7.60;99.90;;;;;;4972484;28;20042;-83
2022/05/05 02:03:12;;;;;;;16.20;6.18;;;7.50;99.90;;;;;;4974534;28;20140;-80
2022/05/05 02:05:45;;;;;;;9.75;4.90;;;7.40;99.90;;;;;;4988065;28;20040;-81
2022/05/05 02:08:14;;;;;;;13.38;5.22;;;7.40;99.90;;;;;;4973797;28;20409;-79
2022/05/05 02:10:40;;;;;;;14.70;5.65;;;7.50;99.90;;;;;;4971750;28;20141;-78
2022/05/05 02:13:07;;;;;;;13.35;5.75;;;7.50;99.90;;;;;;4981869;28;20044;-77
2022/05/05 02:15:34;;;;;;;14.20;5.88;;;7.40;99.90;;;;;;4974043;28;20041;-79
2022/05/05 02:18:08;;;;;;;12.70;5.15;;;7.40;99.90;;;;;;4988961;28;20042;-78
2022/05/05 02:20:33;;;;;;;13.40;5.20;;;7.40;99.90;;;;;;4974041;28;20105;-79
2022/05/05 02:22:59;;;;;;;14.10;5.40;;;7.40;99.90;;;;;;4987558;28;20438;-78
2022/05/05 02:25:24;;;;;;;13.10;5.43;;;7.40;99.90;;;;;;5005133;28;20077;-82
2022/05/05 02:27:52;;;;;;;13.55;5.00;;;7.30;99.90;;;;;;5008310;28;20563;-82
2022/05/05 02:30:20;;;;;;;17.00;5.50;;;7.30;99.90;;;;;;4985467;28;20057;-81
2022/05/05 02:32:46;;;;;;;17.83;5.78;;;7.30;99.90;;;;;;4988755;28;20133;-82
2022/05/05 02:35:12;;;;;;;16.70;5.43;;;7.30;99.90;;;;;;4989637;28;20035;-83
2022/05/05 02:40:22;;;;;;;13.30;5.23;;;7.20;99.90;;;;;;4999695;28;20073;-75
2022/05/05 02:42:48;;;;;;;19.48;5.78;;;7.20;99.90;;;;;;5005186;28;20320;-75
2022/05/05 02:45:14;;;;;;;12.32;5.45;;;7.20;99.90;;;;;;4994550;28;20481;-77
2022/05/05 02:47:39;;;;;;;16.67;5.97;;;7.20;99.90;;;;;;4985434;28;20469;-80
2022/05/05 02:50:05;;;;;;;15.45;5.30;;;7.30;99.90;;;;;;4974085;28;20120;-82
2022/05/05 02:52:31;;;;;;;9.38;5.40;;;7.20;99.90;;;;;;4991766;28;20132;-82
2022/05/05 02:54:57;;;;;;;10.45;5.60;;;7.20;99.90;;;;;;4986203;28;20458;-79
2022/05/05 02:57:24;;;;;;;16.80;6.15;;;7.20;99.90;;;;;;4987724;28;20057;-77
2022/05/05 02:59:54;;;;;;;12.60;6.05;;;7.30;99.90;;;;;;5014452;28;20118;-79
2022/05/05 03:02:20;;;;;;;10.18;5.75;;;7.20;99.90;;;;;;5006332;28;20061;-80
2022/05/05 03:04:47;;;;;;;12.65;5.72;;;7.30;99.90;;;;;;4986709;28;20045;-78
2022/05/05 03:07:13;;;;;;;15.50;5.82;;;7.30;99.90;;;;;;4995198;28;20049;-77
2022/05/05 03:09:40;;;;;;;16.20;5.97;;;7.30;99.90;;;;;;4990114;28;20042;-77
2022/05/05 03:12:07;;;;;;;13.07;5.32;;;7.80;99.90;;;;;;4990123;28;20045;-82
2022/05/05 03:14:33;;;;;;;14.57;5.80;;;7.30;99.90;;;;;;4989863;28;20041;-81
2022/05/05 03:16:59;;;;;;;18.45;5.43;;;7.40;99.90;;;;;;4992045;28;20042;-80
2022/05/05 03:19:26;;;;;;;12.77;5.72;;;7.50;99.90;;;;;;5010477;28;20038;-81
2022/05/05 03:21:54;;;;;;;13.05;5.05;;;7.50;99.90;;;;;;4973128;28;20390;-81
2022/05/05 03:24:20;;;;;;;16.63;5.55;;;7.50;99.90;;;;;;4986404;28;20049;-79
2022/05/05 03:26:46;;;;;;;17.40;5.20;;;7.50;99.90;;;;;;4975888;28;20046;-80
2022/05/05 03:29:12;;;;;;;15.30;5.22;;;7.50;99.90;;;;;;4990462;28;20131;-78
2022/05/05 03:31:38;;;;;;;12.73;5.28;;;7.50;99.90;;;;;;4987059;28;20038;-78
2022/05/05 03:34:04;;;;;;;12.07;5.43;;;7.50;99.90;;;;;;4991383;28;20050;-78
2022/05/05 03:36:30;;;;;;;19.90;6.03;;;7.60;99.90;;;;;;4985091;28;20037;-80
2022/05/05 03:38:56;;;;;;;14.98;5.60;;;7.80;99.90;;;;;;4993318;28;20034;-80
2022/05/05 03:41:22;;;;;;;12.30;5.18;;;7.60;99.90;;;;;;4974201;28;20354;-80
2022/05/05 03:43:48;;;;;;;15.82;5.53;;;8.10;99.90;;;;;;4976015;28;20054;-80
2022/05/05 03:46:14;;;;;;;12.38;5.40;;;7.50;99.90;;;;;;4991292;28;20053;-81
2022/05/05 03:48:39;;;;;;;13.25;5.40;;;7.50;99.90;;;;;;4988822;28;20095;-82
2022/05/05 03:51:05;;;;;;;17.95;5.75;;;7.40;99.90;;;;;;4976027;28;20117;-78
2022/05/05 03:53:32;;;;;;;15.07;5.75;;;7.40;99.90;;;;;;4975426;28;20046;-81
2022/05/05 03:55:58;;;;;;;14.45;6.22;;;7.40;99.90;;;;;;4977751;28;20038;-82
2022/05/05 03:58:25;;;;;;;20.13;6.68;;;7.40;99.90;;;;;;4993884;28;20080;-80
2022/05/05 04:00:51;;;;;;;12.23;6.30;;;7.40;99.90;;;;;;4989073;28;20436;-80
2022/05/05 04:03:32;;;;;;;15.18;6.35;;;7.40;99.90;;;;;;4992962;28;20050;-80
2022/05/05 04:05:58;;;;;;;17.63;6.55;;;7.50;99.90;;;;;;4995400;28;20065;-80
2022/05/05 04:08:25;;;;;;;15.90;6.82;;;7.50;99.90;;;;;;4997280;28;20041;-78
2022/05/05 04:10:51;;;;;;;15.75;7.05;;;7.50;99.90;;;;;;4987441;28;20060;-77
2022/05/05 04:13:16;;;;;;;18.73;7.50;;;7.40;99.90;;;;;;4985871;28;20038;-76
2022/05/05 04:15:42;;;;;;;15.02;6.78;;;7.40;99.90;;;;;;4975983;28;20034;-80
2022/05/05 04:18:08;;;;;;;15.93;7.15;;;7.60;99.90;;;;;;4962805;28;20445;-80
2022/05/05 04:20:33;;;;;;;17.02;7.03;;;7.50;99.90;;;;;;4972701;28;20042;-79
2022/05/05 04:22:59;;;;;;;16.95;7.28;;;7.50;99.90;;;;;;4998133;28;20053;-79
2022/05/05 04:25:25;;;;;;;28.23;7.25;;;7.50;99.90;;;;;;4983156;28;20117;-79
2022/05/05 04:27:51;;;;;;;12.10;7.53;;;7.60;99.90;;;;;;4993046;28;20120;-77
2022/05/05 04:30:17;;;;;;;16.73;7.45;;;7.60;99.90;;;;;;4974357;28;20560;-81
2022/05/05 04:32:45;;;;;;;14.32;7.32;;;7.60;99.90;;;;;;4982822;28;20077;-79
2022/05/05 04:35:11;;;;;;;13.80;7.53;;;7.60;99.90;;;;;;4975608;28;20045;-77
2022/05/05 04:37:39;;;;;;;17.80;8.02;;;7.60;99.90;;;;;;4988216;28;20034;-78
2022/05/05 04:40:05;;;;;;;19.55;8.15;;;7.70;99.90;;;;;;4994684;28;20109;-79
2022/05/05 04:42:31;;;;;;;19.02;7.75;;;7.70;99.90;;;;;;4972597;28;20042;-81
2022/05/05 04:44:56;;;;;;;19.80;8.27;;;7.70;99.90;;;;;;4979617;28;20046;-80
2022/05/05 04:47:22;;;;;;;17.45;7.03;;;7.70;99.90;;;;;;4979372;28;20521;-81
2022/05/05 04:49:47;;;;;;;12.07;7.15;;;7.80;99.90;;;;;;4983369;28;20113;-79
2022/05/05 04:52:13;;;;;;;15.90;7.18;;;7.90;99.90;;;;;;4986993;28;20078;-78
2022/05/05 04:54:39;;;;;;;15.15;7.28;;;7.90;99.90;;;;;;4984576;28;20076;-79
2022/05/05 04:57:05;;;;;;;19.40;8.18;;;7.90;99.90;;;;;;4989030;28;20050;-78
2022/05/05 04:59:30;;;;;;;19.38;8.10;;;7.90;99.90;;;;;;4970155;28;20121;-79
2022/05/05 05:01:56;;;;;;;17.65;7.22;;;8.00;99.90;;;;;;4970600;28;20045;-81
2022/05/05 05:04:22;;;;;;;19.02;7.38;;;8.00;99.90;;;;;;4989220;28;20045;-77
2022/05/05 05:06:47;;;;;;;21.83;7.65;;;8.00;99.90;;;;;;4981489;28;20076;-81
2022/05/05 05:09:13;;;;;;;13.07;7.05;;;8.10;99.90;;;;;;4988452;28;20264;-80
2022/05/05 05:11:39;;;;;;;16.02;7.40;;;8.20;99.90;;;;;;4978941;28;20449;-80
2022/05/05 05:14:04;;;;;;;17.23;7.03;;;8.20;99.90;;;;;;4996637;28;20423;-79
2022/05/05 05:16:30;;;;;;;17.52;7.03;;;8.20;99.90;;;;;;4968585;28;20089;-84
2022/05/05 05:18:56;;;;;;;16.60;6.97;;;8.30;99.90;;;;;;4976244;28;20034;-80
2022/05/05 05:21:22;;;;;;;13.30;6.30;;;8.30;99.90;;;;;;4970162;28;20042;-80
2022/05/05 05:23:47;;;;;;;16.10;6.70;;;8.50;99.90;;;;;;4960470;28;20431;-79
2022/05/05 05:26:16;;;;;;;13.98;6.35;;;8.70;99.90;;;;;;4945802;28;20054;-82
2022/05/05 05:28:44;;;;;;;15.23;5.78;;;8.50;99.90;;;;;;4964557;28;20045;-80
2022/05/05 05:31:10;;;;;;;15.65;6.35;;;8.50;99.90;;;;;;4954667;28;20039;-81
2022/05/05 05:33:35;;;;;;;9.52;5.40;;;8.60;99.90;;;;;;4970892;28;20041;-81
2022/05/05 05:36:01;;;;;;;16.52;6.45;;;8.60;99.90;;;;;;4958924;28;20038;-79
2022/05/05 05:38:27;;;;;;;16.45;6.32;;;8.80;99.90;;;;;;4968121;28;20125;-79
2022/05/05 05:40:54;;;;;;;15.18;5.55;;;8.80;99.90;;;;;;4966667;28;20038;-80
2022/05/05 05:43:21;;;;;;;15.40;6.28;;;9.00;99.90;;;;;;4990863;28;20054;-76
2022/05/05 05:45:54;;;;;;;16.77;6.40;;;9.00;99.90;;;;;;5120235;27;20950;-78
2022/05/05 05:48:20;;;;;;;15.07;6.15;;;9.00;99.90;;;;;;5117660;27;20045;-79
2022/05/05 05:50:45;;;;;;;18.63;5.72;;;9.10;99.90;;;;;;5111097;27;20071;-82
2022/05/05 05:53:12;;;;;;;17.80;6.43;;;9.30;99.90;;;;;;5114801;27;20061;-81
2022/05/05 05:55:40;;;;;;;14.32;5.65;;;9.20;99.90;;;;;;5100323;28;20039;-83
2022/05/05 05:58:15;;;;;;;16.15;6.07;;;9.30;99.90;;;;;;5097170;27;20055;-80
2022/05/05 06:00:41;;;;;;;15.77;5.70;;;9.70;99.90;;;;;;5112955;27;20566;-78
2022/05/05 06:05:51;;;;;;;10.43;5.32;;;9.60;99.90;;;;;;5118514;27;20395;-77
2022/05/05 06:08:17;;;;;;;15.00;5.70;;;9.70;99.90;;;;;;5111965;27;20035;-79
2022/05/05 06:10:43;;;;;;;14.80;6.05;;;9.90;99.90;;;;;;5099410;27;20059;-79
2022/05/05 06:13:09;;;;;;;14.05;5.88;;;9.70;99.90;;;;;;5116016;27;20039;-83
2022/05/05 06:15:35;;;;;;;15.27;5.85;;;10.40;99.90;;;;;;5094745;27;20076;-82
2022/05/05 06:18:00;;;;;;;15.00;5.70;;;10.00;99.90;;;;;;5120515;27;20035;-80
2022/05/05 06:20:26;;;;;;;13.68;5.45;;;10.00;99.90;;;;;;5109811;27;20044;-82
2022/05/05 06:22:52;;;;;;;22.30;6.13;;;10.00;99.90;;;;;;5095909;28;20047;-82
2022/05/05 06:25:20;;;;;;;14.60;5.75;;;10.10;99.90;;;;;;5100571;27;20052;-80
2022/05/05 06:27:47;;;;;;;15.95;5.55;;;10.20;99.90;;;;;;5099532;28;20199;-80
2022/05/05 06:30:13;;;;;;;15.63;6.03;;;10.30;99.90;;;;;;5114136;28;20059;-79
2022/05/05 06:32:43;;;;;;;15.38;5.65;;;10.40;99.90;;;;;;5092729;28;20173;-81
2022/05/05 06:35:10;;;;;;;16.60;6.30;;;10.70;99.90;;;;;;5083939;28;20031;-79
2022/05/05 06:37:36;;;;;;;12.52;5.30;;;11.20;99.90;;;;;;5117809;28;20070;-79
2022/05/05 06:40:03;;;;;;;17.92;6.38;;;10.60;99.90;;;;;;5112743;28;20474;-80
2022/05/05 06:42:28;;;;;;;19.02;6.70;;;10.70;99.90;;;;;;5119538;28;20039;-78
2022/05/05 06:44:55;;;;;;;14.75;6.43;;;10.80;99.90;;;;;;5117667;28;20051;-80
2022/05/05 06:47:21;;;;;;;12.75;6.72;;;10.80;99.90;;;;;;5100144;28;20104;-77
2022/05/05 06:49:46;;;;;;;15.52;6.25;;;10.90;99.90;;;;;;5105281;28;20032;-82
2022/05/05 06:52:14;;;;;;;15.65;6.72;;;10.90;99.90;;;;;;5111812;28;20042;-78
2022/05/05 06:54:39;;;;;;;19.15;7.03;;;11.00;99.90;;;;;;5091215;28;20101;-85
2022/05/05 06:57:05;;;;;;;17.33;6.93;;;11.00;99.90;;;;;;5078939;28;20035;-81
2022/05/05 06:59:49;;;;;;;23.42;6.88;;;11.10;99.90;;;;;;5078996;28;20039;-78
2022/05/05 07:02:15;;;;;;;18.23;6.22;;;11.30;99.90;;;;;;5096874;28;20097;-78
2022/05/05 07:07:25;;;;;;;17.05;6.63;;;11.40;99.90;;;;;;5107234;28;20129;-78
2022/05/05 07:12:35;;;;;;;16.33;6.45;;;11.60;99.90;;;;;;5097804;28;20120;-78
2022/05/05 07:15:01;;;;;;;15.40;6.82;;;11.80;99.90;;;;;;5073710;28;20075;-81
2022/05/05 07:17:29;;;;;;;13.65;6.57;;;11.80;99.90;;;;;;5075679;28;20054;-79
2022/05/05 07:19:55;;;;;;;13.25;6.72;;;12.00;99.90;;;;;;5090825;28;20056;-79
2022/05/05 07:22:21;;;;;;;15.77;7.15;;;12.10;99.90;;;;;;5073608;28;20048;-81
2022/05/05 07:24:47;;;;;;;15.90;6.60;;;12.10;99.90;;;;;;5085740;28;20059;-78
2022/05/05 07:27:13;;;;;;;17.95;6.63;;;12.20;99.90;;;;;;5078015;28;20044;-83
2022/05/05 07:29:40;;;;;;;18.48;6.97;;;12.50;99.90;;;;;;5079336;28;20076;-80
2022/05/05 07:32:06;;;;;;;11.23;6.05;;;12.40;99.90;;;;;;5078804;28;20494;-85
2022/05/05 07:34:34;;;;;;;12.73;6.57;;;12.50;99.90;;;;;;5100726;28;20119;-85
2022/05/05 07:37:00;;;;;;;14.82;6.18;;;12.50;99.90;;;;;;5082105;28;20780;-83
2022/05/05 07:39:26;;;;;;;17.63;7.22;;;12.50;99.90;;;;;;5084839;28;20135;-82
2022/05/05 07:41:51;;;;;;;15.48;6.63;;;12.70;99.90;;;;;;5085727;28;20123;-80
2022/05/05 07:44:17;;;;;;;14.63;6.15;;;12.80;99.90;;;;;;5085414;28;20094;-81
2022/05/05 07:46:43;;;;;;;14.85;6.30;;;12.90;99.90;;;;;;5098013;28;20044;-83
2022/05/05 07:49:09;;;;;;;14.80;6.25;;;13.10;99.90;;;;;;5090155;28;20044;-82
2022/05/05 07:51:35;;;;;;;19.73;6.00;;;13.10;99.90;;;;;;5107930;28;20035;-81
2022/05/05 07:56:51;;;;;;;17.15;6.07;;;13.30;99.90;;;;;;5091579;28;20052;-83
2022/05/05 07:59:18;;;;;;;13.85;5.90;;;13.50;99.90;;;;;;5090847;28;20052;-83
2022/05/05 08:01:44;;;;;;;14.57;5.53;;;13.40;99.90;;;;;;5095117;28;20055;-82
2022/05/05 08:04:13;;;;;;;16.02;5.20;;;13.60;99.90;;;;;;5096832;28;20048;-83
2022/05/05 08:06:39;;;;;;;16.70;5.07;;;13.70;99.90;;;;;;5092469;28;20523;-80
2022/05/05 08:09:05;;;;;;;14.68;5.57;;;13.90;99.90;;;;;;5083088;28;20148;-79
2022/05/05 08:11:30;;;;;;;15.57;5.82;;;13.90;99.90;;;;;;5102484;28;20041;-86
2022/05/05 08:13:56;;;;;;;14.20;5.80;;;14.30;99.90;;;;;;5107243;28;20055;-76
2022/05/05 08:16:25;;;;;;;10.18;2.40;;;14.30;99.90;;;;;;5074755;28;20464;-82
2022/05/05 08:18:51;;;;;;;11.65;3.28;;;14.80;99.90;;;;;;5076949;28;20055;-82
2022/05/05 08:21:16;;;;;;;11.70;2.85;;;15.20;99.90;;;;;;5095528;28;20048;-82
2022/05/05 08:23:42;;;;;;;18.90;3.50;;;15.80;99.90;;;;;;5093820;28;20047;-87
2022/05/05 08:28:54;;;;;;;13.52;3.72;;;16.90;99.90;;;;;;5123462;28;20043;-77
2022/05/05 08:31:20;;;;;;;12.30;3.80;;;17.10;99.90;;;;;;5107680;28;20040;-78
2022/05/05 08:33:47;;;;;;;9.63;2.92;;;17.20;99.90;;;;;;5096225;28;20101;-78
2022/05/05 08:36:13;;;;;;;8.00;3.13;;;17.40;99.90;;;;;;5093480;28;20043;-78
2022/05/05 08:38:39;;;;;;;11.52;3.38;;;17.50;99.90;;;;;;5075159;28;20487;-78
2022/05/05 08:41:10;;;;;;;7.05;2.70;;;17.60;99.90;;;;;;5083100;28;20081;-80
2022/05/05 08:43:36;;;;;;;13.80;3.38;;;17.80;99.90;;;;;;5079113;28;20047;-79
2022/05/05 08:46:03;;;;;;;10.55;3.83;;;18.10;99.90;;;;;;5073388;28;20552;-79
2022/05/05 08:48:31;;;;;;;12.80;4.10;;;18.20;99.90;;;;;;5094903;28;20043;-78
2022/05/05 08:51:00;;;;;;;9.85;2.92;;;17.90;99.90;;;;;;5090127;28;20040;-77
2022/05/05 08:53:35;;;;;;;15.52;4.47;;;17.70;99.90;;;;;;5086818;28;20261;-76
2022/05/05 08:56:03;;;;;;;11.65;3.25;;;17.80;99.90;;;;;;5071013;28;20048;-79
2022/05/05 08:58:29;;;;;;;13.48;4.70;;;17.90;99.90;;;;;;5076097;28;20134;-79
2022/05/05 09:00:55;;;;;;;13.80;4.70;;;17.90;99.90;;;;;;5099519;28;20079;-79
2022/05/05 09:03:21;;;;;;;14.13;4.88;;;17.80;99.90;;;;;;5094186;28;20124;-80
2022/05/05 09:05:52;;;;;;;18.98;4.70;;;17.60;99.90;;;;;;5073553;28;20048;-78
2022/05/05 09:08:27;;;;;;;15.77;4.72;;;17.20;99.90;;;;;;5083745;28;20032;-79
2022/05/05 09:10:54;;;;;;;12.55;4.45;;;17.10;99.90;;;;;;5090809;28;20036;-80
2022/05/05 09:13:28;;;;;;;10.73;4.68;;;17.20;99.90;;;;;;5079262;28;20048;-82
2022/05/05 09:15:54;;;;;;;11.98;4.88;;;17.10;99.90;;;;;;5089852;28;20063;-82
2022/05/05 09:18:22;;;;;;;15.02;4.50;;;17.10;99.90;;;;;;5089645;28;20131;-83
2022/05/05 09:20:49;;;;;;;9.80;4.30;;;17.40;99.90;;;;;;5074669;28;20048;-80
2022/05/05 09:23:37;;;;;;;12.93;4.82;;;17.50;99.90;;;;;;5077273;28;20055;-82
2022/05/05 09:26:05;;;;;;;11.35;4.35;;;17.50;99.90;;;;;;5073269;28;20059;-82
2022/05/05 09:28:35;;;;;;;12.82;4.80;;;17.70;99.90;;;;;;5074011;28;20086;-81
2022/05/05 09:31:10;;;;;;;9.18;4.88;;;17.80;99.90;;;;;;5073384;28;20127;-81
2022/05/05 09:33:44;;;;;;;12.10;5.32;;;17.80;99.90;;;;;;5094686;28;20086;-81
2022/05/05 09:36:28;;;;;;;12.07;5.90;;;17.70;99.90;;;;;;5063273;28;20478;-81
2022/05/05 09:38:55;;;;;;;10.63;6.05;;;17.60;99.90;;;;;;5083370;28;20074;-80
2022/05/05 09:41:22;;;;;;;14.75;6.00;;;17.70;99.90;;;;;;5097800;28;20052;-81
2022/05/05 09:43:53;;;;;;;9.63;5.63;;;17.90;99.90;;;;;;5097380;28;20054;-81
2022/05/05 09:46:39;;;;;;;11.70;5.50;;;18.00;99.90;;;;;;5103150;28;20087;-82
2022/05/05 09:49:09;;;;;;;10.07;5.18;;;18.10;99.90;;;;;;5109974;28;20072;-78
2022/05/05 09:57:41;;;;;;;11.48;4.60;;;18.70;99.90;;;;;;5103661;28;20070;-75
2022/05/05 10:00:23;;;;;;;9.05;4.97;;;18.70;99.90;;;;;;5085199;28;20139;-79
2022/05/05 10:05:37;;;;;;;11.48;5.65;;;19.00;99.90;;;;;;5094486;28;20051;-76
2022/05/05 10:08:02;;;;;;;14.02;5.32;;;19.20;99.90;;;;;;5102747;28;20056;-76
2022/05/05 10:10:29;;;;;;;11.63;4.72;;;19.20;99.90;;;;;;5080443;28;20048;-78
2022/05/05 10:12:57;;;;;;;7.22;3.47;;;19.40;99.90;;;;;;5088820;28;20052;-76
2022/05/05 10:15:24;;;;;;;10.48;4.97;;;19.30;99.90;;;;;;5070761;28;20059;-75
2022/05/05 10:17:51;;;;;;;8.73;5.07;;;19.30;99.90;;;;;;5105789;28;20040;-77
2022/05/05 10:20:19;;;;;;;8.40;5.15;;;19.60;99.90;;;;;;5074570;28;20038;-76
2022/05/05 10:23:09;;;;;;;8.65;4.78;;;19.70;99.90;;;;;;5093517;28;20044;-76
2022/05/05 10:25:37;;;;;;;12.98;5.10;;;19.70;99.90;;;;;;5100026;28;20489;-77
2022/05/05 10:28:23;;;;;;;8.98;4.28;;;19.90;99.90;;;;;;5072318;28;20047;-75
2022/05/05 10:30:49;;;;;;;10.73;5.10;;;20.10;99.90;;;;;;5092272;28;20531;-75
2022/05/05 10:33:15;;;;;;;8.85;4.32;;;20.10;99.90;;;;;;5093820;28;20077;-77
2022/05/05 10:35:47;;;;;;;10.07;3.80;;;20.30;99.90;;;;;;5077340;28;20047;-77
2022/05/05 10:38:41;;;;;;;8.90;4.65;;;20.40;99.90;;;;;;5093010;28;20081;-77
2022/05/05 10:41:36;;;;;;;12.25;4.05;;;20.50;99.90;;;;;;5104364;28;20250;-77
2022/05/05 10:44:20;;;;;;;10.77;4.88;;;20.70;99.90;;;;;;5080240;28;20071;-77
2022/05/05 10:46:55;;;;;;;8.17;4.70;;;20.40;98.40;;;;;;5102366;28;20056;-76
2022/05/05 10:49:42;;;;;;;7.90;3.90;;;20.60;99.00;;;;;;5093305;28;20374;-79
2022/05/05 10:52:11;;;;;;;8.27;3.08;;;20.70;99.10;;;;;;5093339;28;20032;-79
2022/05/05 10:54:47;;;;;;;9.45;5.95;;;20.80;99.90;;;;;;5094222;28;20755;-81
2022/05/05 10:57:25;;;;;;;11.82;5.40;;;20.50;99.30;;;;;;5112114;28;20052;-81
2022/05/05 11:00:09;;;;;;;;;;;20.30;98.90;;;;;;5097805;28;20124;-79
2022/05/05 11:02:36;;;;;;;12.10;6.88;;;20.10;99.00;;;;;;5077551;28;19923;-78
2022/05/05 11:05:20;;;;;;;11.20;5.88;;;20.30;99.20;;;;;;5075893;28;20121;-80
2022/05/05 11:07:49;;;;;;;11.05;6.75;;;20.10;99.10;;;;;;5105589;28;20047;-79
2022/05/05 11:13:35;;;;;;;14.50;6.10;;;20.20;99.50;;;;;;5106663;28;20511;-80
2022/05/05 11:22:18;;;;;;;12.48;5.88;;;20.40;99.60;;;;;;5097860;28;20046;-78
2022/05/05 11:24:49;;;;;;;13.18;6.70;;;20.20;99.70;;;;;;5091055;28;20043;-78
2022/05/05 11:27:21;;;;;;;11.20;7.20;;;20.40;99.40;;;;;;5074949;28;20109;-76
2022/05/05 11:29:51;;;;;;;12.50;7.03;;;20.20;99.00;;;;;;5074024;28;20044;-77
2022/05/05 11:32:17;;;;;;;9.13;5.38;;;19.70;99.60;;;;;;5096786;28;20780;-76
2022/05/05 11:34:45;;;;;;;11.43;5.53;;;19.80;99.90;;;;;;5106157;28;20044;-76
2022/05/05 11:37:11;;;;;;;16.85;6.18;;;20.00;99.90;;;;;;5080958;28;20044;-76
2022/05/05 11:39:38;;;;;;;11.50;6.45;;;20.30;99.90;;;;;;5107013;28;20047;-76
2022/05/05 11:42:05;;;;;;;11.27;7.30;;;20.40;99.90;;;;;;5079645;28;20035;-79
2022/05/05 11:44:39;;;;;;;11.32;7.00;;;20.40;99.70;;;;;;5093720;28;20038;-79
2022/05/05 11:47:17;;;;;;;11.80;6.90;;;20.10;99.90;;;;;;5101630;28;20051;-78
2022/05/05 11:49:47;;;;;;;12.02;6.63;;;20.30;99.90;;;;;;5096435;28;20051;-77
2022/05/05 11:52:23;;;;;;;10.90;6.70;;;20.40;99.80;;;;;;5096849;28;20043;-77
2022/05/05 11:54:58;;;;;;;13.60;6.68;;;20.50;99.90;;;;;;5101194;28;20036;-76
2022/05/05 11:57:35;;;;;;;9.70;6.13;;;21.00;99.90;;;;;;5094261;28;20044;-76
2022/05/05 12:02:48;;;;;;;8.68;5.05;;;22.00;99.30;;;;;;5095428;28;20048;-80
2022/05/05 12:05:14;;;;;;;12.07;7.35;;;22.30;98.90;;;;;;5101250;28;20065;-78
2022/05/05 12:07:44;;;;;;;8.63;6.22;;;22.70;98.10;;;;;;5096342;28;20040;-81
2022/05/05 12:10:12;;;;;;;9.70;6.65;;;22.50;97.50;;;;;;5076644;28;20040;-76
2022/05/05 12:12:46;;;;;;;15.63;7.25;;;22.10;96.70;;;;;;5090754;28;20036;-80
2022/05/05 12:15:17;;;;;;;13.43;6.78;;;22.40;96.60;;;;;;5102206;28;20153;-78
2022/05/05 12:17:47;;;;;;;13.30;6.90;;;22.10;96.80;;;;;;5096646;28;20139;-76
2022/05/05 12:20:15;;;;;;;8.98;5.75;;;22.00;97.10;;;;;;5080834;28;20120;-78
2022/05/05 12:22:53;;;;;;;8.27;6.18;;;22.10;96.60;;;;;;5100727;28;20557;-80
2022/05/05 12:25:20;;;;;;;8.35;6.22;;;21.70;96.80;;;;;;5079280;28;20055;-81
2022/05/05 12:27:58;;;;;;;11.50;6.30;;;21.80;96.70;;;;;;5097578;28;20291;-78
2022/05/05 12:30:34;;;;;;;11.60;5.63;;;21.90;96.30;;;;;;5078422;28;20047;-79
2022/05/05 12:33:02;;;;;;;14.02;6.15;;;22.00;96.50;;;;;;5079726;28;20055;-80
2022/05/05 12:35:39;;;;;;;10.75;6.40;;;22.00;97.00;;;;;;5093493;28;20066;-79
2022/05/05 12:38:06;;;;;;;9.00;5.60;;;22.00;96.50;;;;;;5102263;28;20047;-77
2022/05/05 12:40:33;;;;;;;7.97;5.63;;;22.40;97.50;;;;;;5082156;28;20105;-77
2022/05/05 12:43:05;;;;;;;7.70;4.68;;;22.90;97.00;;;;;;5083549;28;20066;-76
2022/05/05 12:45:32;;;;;;;9.80;5.55;;;23.20;96.00;;;;;;5092640;28;20057;-74
2022/05/05 12:48:00;;;;;;;8.30;6.10;;;23.50;95.40;;;;;;5079636;28;20078;-77
2022/05/05 12:50:26;;;;;;;8.75;5.35;;;22.80;94.90;;;;;;5077978;28;20085;-80
2022/05/05 13:01:04;;;;;;;9.63;6.13;;;22.60;95.40;;;;;;5092521;28;20050;-77
2022/05/05 13:03:30;;;;;;;9.85;6.53;;;22.10;95.50;;;;;;5095193;28;20052;-79
2022/05/05 13:05:56;;;;;;;9.18;6.22;;;22.10;96.60;;;;;;5075365;28;20078;-76
2022/05/05 13:08:21;;;;;;;10.73;6.18;;;21.70;96.00;;;;;;5099541;28;20471;-80
2022/05/05 13:10:47;;;;;;;8.10;5.88;;;21.90;95.20;;;;;;5083957;28;20119;-78
2022/05/05 13:13:14;;;;;;;10.32;5.82;;;21.80;95.20;;;;;;5090776;28;20039;-79
2022/05/05 13:15:59;;;;;;;12.40;6.43;;;22.00;95.40;;;;;;5081587;28;20055;-79
2022/05/05 13:18:25;;;;;;;7.45;5.53;;;21.40;95.90;;;;;;5095539;28;20070;-76
2022/05/05 13:20:50;;;;;;;10.32;6.05;;;21.70;95.80;;;;;;5096989;28;20074;-78
2022/05/05 13:23:16;;;;;;;15.23;6.70;;;22.10;95.50;;;;;;5097492;28;20051;-78
2022/05/05 13:25:42;;;;;;;12.05;6.10;;;22.50;95.30;;;;;;5090158;28;20044;-77
2022/05/05 13:28:08;;;;;;;9.93;5.90;;;22.70;95.50;;;;;;5076811;28;20043;-79
2022/05/05 13:30:34;;;;;;;8.65;5.80;;;23.30;95.10;;;;;;5089164;28;20430;-79
2022/05/05 13:32:59;;;;;;;9.13;6.00;;;23.50;94.50;;;;;;5076306;28;20070;-77
2022/05/05 13:35:25;;;;;;;13.18;6.60;;;23.60;93.50;;;;;;5091068;28;20054;-77
2022/05/05 13:37:51;;;;;;;10.20;6.90;;;23.30;93.70;;;;;;5093006;28;20065;-77
2022/05/05 13:40:16;;;;;;;10.88;6.53;;;23.10;93.80;;;;;;5079634;28;20059;-78